Naikai2 — JD2433 — position and weather

sailwx.info

Track history (hours):
 
Tides and Currents Weather Stations Pressure Air Temp Water Temp Dewpoint Dewpoint Depression Visibility Wind Speed Wind Dir Waves Ship Positions

Naikai2

Last reported at 2018-Feb-23 06:00 UTC. Time now 2018-Feb-23 10:40 UTC.
Position N 34°38' E 135°09'.

Length 28 m; draft 2.2 m.

Type: Other ship. MMSI: 431000283.

Date/timePositionNaut miles runAvg speedWind from/ knotsBaromVisibWave heightAir tempDewpointWater temp
2018-Feb-23 06:00N 34°38' E 135°09'611.4
2018-Feb-23 05:30N 34°36' E 135°03'5 9.4
2018-Feb-23 05:00N 34°36' E 134°57'3 6.9
2018-Feb-23 04:31N 34°36' E 135°01'714.4
2018-Feb-23 04:01N 34°35' E 135°10'714.6
2018-Feb-23 03:31N 34°34' E 135°19'510.6
2018-Feb-23 03:00N 34°33' E 135°25'0 0.9
2018-Feb-23 02:30N 34°33' E 135°25'4 8.3
2018-Feb-23 02:00N 34°33' E 135°20'510.5
2018-Feb-23 01:30N 34°30' E 135°14'611.7
2018-Feb-23 01:00N 34°26' E 135°09'612.9
2018-Feb-23 00:30N 34°22' E 135°04'611.9
2018-Feb-23 00:01N 34°17' E 134°59'612.3
2018-Feb-22 23:30N 34°11' E 134°59'4 7.8
2018-Feb-22 23:00N 34°14' E 135°02'713.1
2018-Feb-22 22:31N 34°20' E 135°05'714.9
2018-Feb-22 22:01N 34°26' E 135°11'714.6
2018-Feb-22 21:30N 34°34' E 135°10'510.8
2018-Feb-22 21:01N 34°39' E 135°10'0 0.0
2018-Feb-22 20:30N 34°39' E 135°10'1 0.0
2018-Feb-21 06:44N 34°38' E 135°10'314.2
2018-Feb-21 06:31N 34°35' E 135°08'714.0
2018-Feb-21 06:00N 34°29' E 135°05'714.4
2018-Feb-21 05:30N 34°22' E 135°02'713.1
2018-Feb-21 05:00N 34°16' E 134°59'4 8.4
2018-Feb-21 04:31N 34°20' E 134°59'713.7
2018-Feb-21 04:01N 34°26' E 135°05'714.2
2018-Feb-21 03:31N 34°30' E 135°11'612.0
2018-Feb-21 03:00N 34°33' E 135°18'5 9.5
2018-Feb-21 02:30N 34°33' E 135°23'1 1.0
2018-Feb-21 02:00N 34°33' E 135°24'2 4.1
2018-Feb-21 01:30N 34°34' E 135°22'611.2
2018-Feb-21 01:00N 34°38' E 135°17'510.5
2018-Feb-21 00:30N 34°40' E 135°11'1 2.1
2018-Feb-21 00:00N 34°39' E 135°11'1 0.1
2018-Feb-20 03:37N 34°39' E 135°10'113.8
2018-Feb-20 03:31N 34°38' E 135°11'714.5
2018-Feb-20 03:01N 34°36' E 135°19'5 9.5
2018-Feb-20 02:30N 34°34' E 135°24'2 4.4
2018-Feb-20 02:01N 34°33' E 135°21'4 8.3
2018-Feb-20 01:30N 34°32' E 135°17'713.4
2018-Feb-20 01:00N 34°28' E 135°11'713.8
2018-Feb-20 00:31N 34°23' E 135°04'612.5
2018-Feb-20 00:01N 34°18' E 134°60'612.2
2018-Feb-19 23:31N 34°12' E 134°58'3 5.1
2018-Feb-19 23:00N 34°14' E 135°01'713.3
2018-Feb-19 22:30N 34°20' E 135°04'714.5
2018-Feb-19 22:01N 34°26' E 135°08'815.1
2018-Feb-19 21:30N 34°34' E 135°10'611.0
2018-Feb-19 21:00N 34°39' E 135°10'0 0.1
2018-Feb-19 20:31N 34°39' E 135°10'1 0.0
2018-Feb-19 05:45N 34°39' E 135°10'314.3
2018-Feb-19 05:31N 34°36' E 135°07'612.8
2018-Feb-19 05:01N 34°37' E 134°59'1 1.1
2018-Feb-19 04:31N 34°36' E 134°59'612.4
2018-Feb-19 04:01N 34°36' E 135°07'4 7.9
2018-Feb-19 03:30N 34°39' E 135°10'0 0.0
2018-Feb-19 03:00N 34°39' E 135°10'0 0.0
2018-Feb-19 02:30N 34°39' E 135°10'0 0.0
2018-Feb-19 02:01N 34°39' E 135°10'0 0.0
2018-Feb-19 01:30N 34°39' E 135°10'0 0.0
2018-Feb-19 01:00N 34°39' E 135°10'2 0.1
2018-Feb-18 01:51N 34°38' E 135°08'513.2
2018-Feb-18 01:31N 34°37' E 135°03'5 9.8
2018-Feb-18 01:00N 34°37' E 134°57'510.8
2018-Feb-18 00:30N 34°36' E 135°03'4 7.8
2018-Feb-18 00:00N 34°35' E 135°08'4 8.3
2018-Feb-17 23:30N 34°39' E 135°10'0 0.1
2018-Feb-17 23:00N 34°39' E 135°10'0 0.0
2018-Feb-17 22:30N 34°39' E 135°10'0 0.0
2018-Feb-17 13:02N 34°39' E 135°10'0 0.3
2018-Feb-17 13:00N 34°39' E 135°10'612.0
2018-Feb-17 12:30N 34°33' E 135°08'714.3
2018-Feb-17 12:00N 34°27' E 135°05'714.6
2018-Feb-17 11:30N 34°20' E 135°01'3 6.0
2018-Feb-17 11:00N 34°18' E 134°58'714.2
2018-Feb-17 10:31N 34°25' E 135°01'815.3
2018-Feb-17 10:00N 34°32' E 135°05'4 8.7
2018-Feb-17 09:30N 34°36' E 135°03'510.2
2018-Feb-17 09:01N 34°36' E 134°57'4 7.9
2018-Feb-17 08:30N 34°36' E 135°02'511.0
2018-Feb-17 08:01N 34°37' E 135°08'3 5.0
2018-Feb-17 07:30N 34°39' E 135°10'0 0.0
2018-Feb-17 07:00N 34°39' E 135°10'0 0.0
2018-Feb-17 06:30N 34°39' E 135°10'0 0.0
2018-Feb-17 02:56N 34°39' E 135°10'1 3.0
2018-Feb-17 02:31N 34°40' E 135°11'1 2.7
2018-Feb-17 02:00N 34°39' E 135°10'0 0.0
2018-Feb-16 08:15N 34°39' E 135°10'313.8
2018-Feb-16 08:00N 34°36' E 135°08'714.2
2018-Feb-16 07:30N 34°29' E 135°05'714.1
2018-Feb-16 07:00N 34°23' E 135°02'713.3
2018-Feb-16 06:31N 34°16' E 134°59'3 6.1
2018-Feb-16 06:00N 34°20' E 134°59'713.8
2018-Feb-16 05:30N 34°25' E 135°04'714.3
2018-Feb-16 05:00N 34°29' E 135°11'713.4
2018-Feb-16 04:30N 34°32' E 135°18'4 8.9
2018-Feb-16 04:00N 34°33' E 135°24'0 0.7
2018-Feb-16 03:30N 34°33' E 135°24'510.4
2018-Feb-16 03:01N 34°34' E 135°18'713.1
2018-Feb-16 02:30N 34°38' E 135°11'1 0.3
2018-Feb-15 20:45N 34°39' E 135°10'313.0
2018-Feb-15 20:30N 34°37' E 135°06'713.1
2018-Feb-15 20:01N 34°38' E 134°59'2 4.5
2018-Feb-15 19:30N 34°37' E 135°01'5 9.6
2018-Feb-15 19:01N 34°36' E 135°07'4 8.8
2018-Feb-15 18:31N 34°39' E 135°10'0 0.2
2018-Feb-15 18:00N 34°39' E 135°10'0 0.0
2018-Feb-15 17:31N 34°39' E 135°10'0 0.0
2018-Feb-15 07:11N 34°39' E 135°10'1 6.0
2018-Feb-15 07:00N 34°38' E 135°09'714.5
2018-Feb-15 06:30N 34°32' E 135°05'714.1
2018-Feb-15 06:01N 34°26' E 135°01'815.1
2018-Feb-15 05:30N 34°18' E 134°58'1 1.6
2018-Feb-15 05:00N 34°18' E 134°58'612.2
2018-Feb-15 04:31N 34°23' E 135°02'713.5
2018-Feb-15 04:00N 34°27' E 135°08'612.6
2018-Feb-15 03:30N 34°31' E 135°14'510.2
2018-Feb-15 03:00N 34°33' E 135°19'3 6.8
2018-Feb-15 02:30N 34°33' E 135°24'0 1.0
2018-Feb-15 02:00N 34°34' E 135°24'0 0.2
2018-Feb-15 01:30N 34°34' E 135°24'3 5.7
2018-Feb-15 01:00N 34°36' E 135°22'2 4.5
2018-Feb-15 00:31N 34°35' E 135°24'1 2.8
2018-Feb-15 00:01N 34°33' E 135°24'2 4.5
2018-Feb-14 23:31N 34°34' E 135°21'610.9
2018-Feb-14 23:00N 34°32' E 135°15'713.7
2018-Feb-14 22:30N 34°27' E 135°09'713.2
2018-Feb-14 22:00N 34°22' E 135°04'713.9
2018-Feb-14 21:30N 34°16' E 134°59'611.3
2018-Feb-14 21:00N 34°11' E 134°60'3 6.9
2018-Feb-14 20:31N 34°14' E 135°01'612.3
2018-Feb-14 20:01N 34°19' E 135°04'714.2
2018-Feb-14 19:31N 34°26' E 135°08'713.8
2018-Feb-14 19:01N 34°33' E 135°09'612.7
2018-Feb-14 18:30N 34°39' E 135°10'0 0.0
2018-Feb-14 00:53N 34°39' E 135°10'1 3.7
2018-Feb-14 00:31N 34°40' E 135°11'3 6.8
2018-Feb-14 00:01N 34°39' E 135°14'714.0
2018-Feb-13 23:30N 34°35' E 135°22'2 4.9
2018-Feb-13 23:00N 34°34' E 135°24'3 5.3
2018-Feb-13 22:30N 34°33' E 135°21'5 9.5
2018-Feb-13 22:01N 34°32' E 135°15'612.7
2018-Feb-13 21:31N 34°28' E 135°09'713.4
2018-Feb-13 21:00N 34°23' E 135°04'714.8
2018-Feb-13 20:30N 34°17' E 134°59'510.3
2018-Feb-13 20:00N 34°11' E 134°60'3 5.6
2018-Feb-13 19:31N 34°14' E 135°02'612.4
2018-Feb-13 19:00N 34°19' E 135°04'714.6
2018-Feb-13 18:30N 34°26' E 135°07'815.1
2018-Feb-13 18:01N 34°34' E 135°10'510.8
2018-Feb-13 17:30N 34°39' E 135°10'  
Track history (hours):
 
Tides and Currents Weather Stations Pressure Air Temp Water Temp Dewpoint Dewpoint Depression Visibility Wind Speed Wind Dir Waves Ship Positions

Naikai2

Last reported at 2018-Feb-23 06:00 UTC. Time now 2018-Feb-23 10:40 UTC.
Position N 34°38' E 135°09'.

Length 28 m; draft 2.2 m.

Type: Other ship. MMSI: 431000283.

Date/timePositionNaut miles runAvg speedWind from/ knotsBaromVisibWave heightAir tempDewpointWater temp
2018-Feb-23 06:00N 34°38' E 135°09'611.4
2018-Feb-23 05:30N 34°36' E 135°03'5 9.4
2018-Feb-23 05:00N 34°36' E 134°57'3 6.9
2018-Feb-23 04:31N 34°36' E 135°01'714.4
2018-Feb-23 04:01N 34°35' E 135°10'714.6
2018-Feb-23 03:31N 34°34' E 135°19'510.6
2018-Feb-23 03:00N 34°33' E 135°25'0 0.9
2018-Feb-23 02:30N 34°33' E 135°25'4 8.3
2018-Feb-23 02:00N 34°33' E 135°20'510.5
2018-Feb-23 01:30N 34°30' E 135°14'611.7
2018-Feb-23 01:00N 34°26' E 135°09'612.9
2018-Feb-23 00:30N 34°22' E 135°04'611.9
2018-Feb-23 00:01N 34°17' E 134°59'612.3
2018-Feb-22 23:30N 34°11' E 134°59'4 7.8
2018-Feb-22 23:00N 34°14' E 135°02'713.1
2018-Feb-22 22:31N 34°20' E 135°05'714.9
2018-Feb-22 22:01N 34°26' E 135°11'714.6
2018-Feb-22 21:30N 34°34' E 135°10'510.8
2018-Feb-22 21:01N 34°39' E 135°10'0 0.0
2018-Feb-22 20:30N 34°39' E 135°10'1 0.0
2018-Feb-21 06:44N 34°38' E 135°10'314.2
2018-Feb-21 06:31N 34°35' E 135°08'714.0
2018-Feb-21 06:00N 34°29' E 135°05'714.4
2018-Feb-21 05:30N 34°22' E 135°02'713.1
2018-Feb-21 05:00N 34°16' E 134°59'4 8.4
2018-Feb-21 04:31N 34°20' E 134°59'713.7
2018-Feb-21 04:01N 34°26' E 135°05'714.2
2018-Feb-21 03:31N 34°30' E 135°11'612.0
2018-Feb-21 03:00N 34°33' E 135°18'5 9.5
2018-Feb-21 02:30N 34°33' E 135°23'1 1.0
2018-Feb-21 02:00N 34°33' E 135°24'2 4.1
2018-Feb-21 01:30N 34°34' E 135°22'611.2
2018-Feb-21 01:00N 34°38' E 135°17'510.5
2018-Feb-21 00:30N 34°40' E 135°11'1 2.1
2018-Feb-21 00:00N 34°39' E 135°11'1 0.1
2018-Feb-20 03:37N 34°39' E 135°10'113.8
2018-Feb-20 03:31N 34°38' E 135°11'714.5
2018-Feb-20 03:01N 34°36' E 135°19'5 9.5
2018-Feb-20 02:30N 34°34' E 135°24'2 4.4
2018-Feb-20 02:01N 34°33' E 135°21'4 8.3
2018-Feb-20 01:30N 34°32' E 135°17'713.4
2018-Feb-20 01:00N 34°28' E 135°11'713.8
2018-Feb-20 00:31N 34°23' E 135°04'612.5
2018-Feb-20 00:01N 34°18' E 134°60'612.2
2018-Feb-19 23:31N 34°12' E 134°58'3 5.1
2018-Feb-19 23:00N 34°14' E 135°01'713.3
2018-Feb-19 22:30N 34°20' E 135°04'714.5
2018-Feb-19 22:01N 34°26' E 135°08'815.1
2018-Feb-19 21:30N 34°34' E 135°10'611.0
2018-Feb-19 21:00N 34°39' E 135°10'0 0.1
2018-Feb-19 20:31N 34°39' E 135°10'1 0.0
2018-Feb-19 05:45N 34°39' E 135°10'314.3
2018-Feb-19 05:31N 34°36' E 135°07'612.8
2018-Feb-19 05:01N 34°37' E 134°59'1 1.1
2018-Feb-19 04:31N 34°36' E 134°59'612.4
2018-Feb-19 04:01N 34°36' E 135°07'4 7.9
2018-Feb-19 03:30N 34°39' E 135°10'0 0.0
2018-Feb-19 03:00N 34°39' E 135°10'0 0.0
2018-Feb-19 02:30N 34°39' E 135°10'0 0.0
2018-Feb-19 02:01N 34°39' E 135°10'0 0.0
2018-Feb-19 01:30N 34°39' E 135°10'0 0.0
2018-Feb-19 01:00N 34°39' E 135°10'2 0.1
2018-Feb-18 01:51N 34°38' E 135°08'513.2
2018-Feb-18 01:31N 34°37' E 135°03'5 9.8
2018-Feb-18 01:00N 34°37' E 134°57'510.8
2018-Feb-18 00:30N 34°36' E 135°03'4 7.8
2018-Feb-18 00:00N 34°35' E 135°08'4 8.3
2018-Feb-17 23:30N 34°39' E 135°10'0 0.1
2018-Feb-17 23:00N 34°39' E 135°10'0 0.0
2018-Feb-17 22:30N 34°39' E 135°10'0 0.0
2018-Feb-17 13:02N 34°39' E 135°10'0 0.3
2018-Feb-17 13:00N 34°39' E 135°10'612.0
2018-Feb-17 12:30N 34°33' E 135°08'714.3
2018-Feb-17 12:00N 34°27' E 135°05'714.6
2018-Feb-17 11:30N 34°20' E 135°01'3 6.0
2018-Feb-17 11:00N 34°18' E 134°58'714.2
2018-Feb-17 10:31N 34°25' E 135°01'815.3
2018-Feb-17 10:00N 34°32' E 135°05'4 8.7
2018-Feb-17 09:30N 34°36' E 135°03'510.2
2018-Feb-17 09:01N 34°36' E 134°57'4 7.9
2018-Feb-17 08:30N 34°36' E 135°02'511.0
2018-Feb-17 08:01N 34°37' E 135°08'3 5.0
2018-Feb-17 07:30N 34°39' E 135°10'0 0.0
2018-Feb-17 07:00N 34°39' E 135°10'0 0.0
2018-Feb-17 06:30N 34°39' E 135°10'0 0.0
2018-Feb-17 02:56N 34°39' E 135°10'1 3.0
2018-Feb-17 02:31N 34°40' E 135°11'1 2.7
2018-Feb-17 02:00N 34°39' E 135°10'0 0.0
2018-Feb-16 08:15N 34°39' E 135°10'313.8
2018-Feb-16 08:00N 34°36' E 135°08'714.2
2018-Feb-16 07:30N 34°29' E 135°05'714.1
2018-Feb-16 07:00N 34°23' E 135°02'713.3
2018-Feb-16 06:31N 34°16' E 134°59'3 6.1
2018-Feb-16 06:00N 34°20' E 134°59'713.8
2018-Feb-16 05:30N 34°25' E 135°04'714.3
2018-Feb-16 05:00N 34°29' E 135°11'713.4
2018-Feb-16 04:30N 34°32' E 135°18'4 8.9
2018-Feb-16 04:00N 34°33' E 135°24'0 0.7
2018-Feb-16 03:30N 34°33' E 135°24'510.4
2018-Feb-16 03:01N 34°34' E 135°18'713.1
2018-Feb-16 02:30N 34°38' E 135°11'1 0.3
2018-Feb-15 20:45N 34°39' E 135°10'313.0
2018-Feb-15 20:30N 34°37' E 135°06'713.1
2018-Feb-15 20:01N 34°38' E 134°59'2 4.5
2018-Feb-15 19:30N 34°37' E 135°01'5 9.6
2018-Feb-15 19:01N 34°36' E 135°07'4 8.8
2018-Feb-15 18:31N 34°39' E 135°10'0 0.2
2018-Feb-15 18:00N 34°39' E 135°10'0 0.0
2018-Feb-15 17:31N 34°39' E 135°10'0 0.0
2018-Feb-15 07:11N 34°39' E 135°10'1 6.0
2018-Feb-15 07:00N 34°38' E 135°09'714.5
2018-Feb-15 06:30N 34°32' E 135°05'714.1
2018-Feb-15 06:01N 34°26' E 135°01'815.1
2018-Feb-15 05:30N 34°18' E 134°58'1 1.6
2018-Feb-15 05:00N 34°18' E 134°58'612.2
2018-Feb-15 04:31N 34°23' E 135°02'713.5
2018-Feb-15 04:00N 34°27' E 135°08'612.6
2018-Feb-15 03:30N 34°31' E 135°14'510.2
2018-Feb-15 03:00N 34°33' E 135°19'3 6.8
2018-Feb-15 02:30N 34°33' E 135°24'0 1.0
2018-Feb-15 02:00N 34°34' E 135°24'0 0.2
2018-Feb-15 01:30N 34°34' E 135°24'3 5.7
2018-Feb-15 01:00N 34°36' E 135°22'2 4.5
2018-Feb-15 00:31N 34°35' E 135°24'1 2.8
2018-Feb-15 00:01N 34°33' E 135°24'2 4.5
2018-Feb-14 23:31N 34°34' E 135°21'610.9
2018-Feb-14 23:00N 34°32' E 135°15'713.7
2018-Feb-14 22:30N 34°27' E 135°09'713.2
2018-Feb-14 22:00N 34°22' E 135°04'713.9
2018-Feb-14 21:30N 34°16' E 134°59'611.3
2018-Feb-14 21:00N 34°11' E 134°60'3 6.9
2018-Feb-14 20:31N 34°14' E 135°01'612.3
2018-Feb-14 20:01N 34°19' E 135°04'714.2
2018-Feb-14 19:31N 34°26' E 135°08'713.8
2018-Feb-14 19:01N 34°33' E 135°09'612.7
2018-Feb-14 18:30N 34°39' E 135°10'0 0.0
2018-Feb-14 00:53N 34°39' E 135°10'1 3.7
2018-Feb-14 00:31N 34°40' E 135°11'3 6.8
2018-Feb-14 00:01N 34°39' E 135°14'714.0
2018-Feb-13 23:30N 34°35' E 135°22'2 4.9
2018-Feb-13 23:00N 34°34' E 135°24'3 5.3
2018-Feb-13 22:30N 34°33' E 135°21'5 9.5
2018-Feb-13 22:01N 34°32' E 135°15'612.7
2018-Feb-13 21:31N 34°28' E 135°09'713.4
2018-Feb-13 21:00N 34°23' E 135°04'714.8
2018-Feb-13 20:30N 34°17' E 134°59'510.3
2018-Feb-13 20:00N 34°11' E 134°60'3 5.6
2018-Feb-13 19:31N 34°14' E 135°02'612.4
2018-Feb-13 19:00N 34°19' E 135°04'714.6
2018-Feb-13 18:30N 34°26' E 135°07'815.1
2018-Feb-13 18:01N 34°34' E 135°10'510.8
2018-Feb-13 17:30N 34°39' E 135°10'  

Dump ship's entire track history